Time;durP1;ratioP1;P1;durP2;ratioP2;P2;SDS_P1;SDS_P2;PMS_P1;PMS_P2;Temp;Humidity;BMP_temperature;BMP_pressure;BME280_temperature;BME280_humidity;BME280_pressure;Samples;Min_cycle;Max_cycle;Signal;HPM_P1;HPM_P2
2022/08/15 00:01:24;;;;;;;7.13;6.00;;;23.90;75.10;;;;;;5031245;28;20811;-66
2022/08/15 00:03:54;;;;;;;15.90;6.23;;;23.90;75.10;;;;;;5032268;28;20398;-66
2022/08/15 00:06:30;;;;;;;6.67;6.07;;;23.90;75.00;;;;;;5047531;28;20436;-66
2022/08/15 00:08:58;;;;;;;8.90;5.80;;;23.70;74.50;;;;;;5051866;28;20477;-66
2022/08/15 00:11:33;;;;;;;10.20;6.07;;;23.70;74.80;;;;;;5036235;28;20421;-66
2022/08/15 00:14:08;;;;;;;6.87;6.17;;;23.70;74.80;;;;;;5032564;28;20756;-66
2022/08/15 00:16:37;;;;;;;6.33;5.73;;;23.70;74.80;;;;;;5031222;28;20445;-65
2022/08/15 00:19:12;;;;;;;8.50;5.47;;;23.70;75.30;;;;;;5031845;28;20406;-65
2022/08/15 00:21:43;;;;;;;5.60;5.00;;;23.70;74.80;;;;;;5032150;28;20867;-66
2022/08/15 00:24:11;;;;;;;5.67;4.83;;;23.70;75.40;;;;;;5031866;28;20410;-66
2022/08/15 00:26:37;;;;;;;6.60;5.53;;;23.70;75.50;;;;;;5032276;28;20458;-66
2022/08/15 00:29:06;;;;;;;7.20;6.60;;;23.70;75.90;;;;;;5030923;28;20552;-68
2022/08/15 00:31:32;;;;;;;10.97;5.50;;;23.60;75.60;;;;;;5032000;28;20711;-69
2022/08/15 00:33:59;;;;;;;8.73;6.00;;;23.60;76.00;;;;;;5031791;28;20434;-66
2022/08/15 00:36:26;;;;;;;5.83;5.23;;;23.60;77.10;;;;;;5031627;28;20663;-66
2022/08/15 00:38:52;;;;;;;6.10;5.50;;;23.60;77.30;;;;;;5031308;28;20456;-67
2022/08/15 00:44:13;;;;;;;8.00;6.10;;;23.60;78.20;;;;;;5031969;28;20606;-67
2022/08/15 00:46:41;;;;;;;9.87;6.20;;;23.60;78.50;;;;;;5031682;28;20484;-67
2022/08/15 00:49:06;;;;;;;7.17;6.23;;;23.50;79.00;;;;;;5031208;28;20784;-67
2022/08/15 00:52:36;;;;;;;7.03;6.37;;;23.50;80.10;;;;;;5032609;28;20486;-68
2022/08/15 00:55:15;;;;;;;15.27;6.77;;;23.50;80.90;;;;;;4952901;28;20213;-67
2022/08/15 00:57:43;;;;;;;6.40;5.57;;;23.40;82.30;;;;;;4970036;28;20578;-67
2022/08/15 01:00:18;;;;;;;6.13;5.57;;;23.50;83.40;;;;;;4970265;28;20467;-67
2022/08/15 01:02:45;;;;;;;6.37;5.77;;;23.40;83.40;;;;;;4970416;28;20843;-69
2022/08/15 01:05:14;;;;;;;8.93;7.40;;;23.50;85.30;;;;;;4975371;28;20858;-68
2022/08/15 01:07:41;;;;;;;7.63;6.50;;;23.40;85.40;;;;;;4989415;28;20824;-68
2022/08/15 01:10:08;;;;;;;10.03;5.73;;;23.40;85.20;;;;;;4983471;28;20444;-68
2022/08/15 01:12:36;;;;;;;15.00;6.80;;;23.50;85.80;;;;;;4970163;28;20405;-68
2022/08/15 01:15:08;;;;;;;16.00;7.07;;;23.50;86.80;;;;;;4969933;28;20468;-68
2022/08/15 01:17:34;;;;;;;13.57;6.50;;;23.50;88.10;;;;;;4965503;28;20522;-68
2022/08/15 01:20:01;;;;;;;6.63;5.83;;;23.50;88.70;;;;;;4958045;28;20512;-68
2022/08/15 01:22:38;;;;;;;7.47;5.60;;;23.40;89.30;;;;;;4950447;29;20182;-68
2022/08/15 01:25:24;;;;;;;9.43;6.87;;;23.50;90.20;;;;;;4949664;29;20429;-67
2022/08/15 01:27:57;;;;;;;8.30;6.17;;;23.40;90.40;;;;;;4962388;28;20414;-67
2022/08/15 01:30:28;;;;;;;6.53;5.70;;;23.30;90.30;;;;;;4992904;28;20481;-67
2022/08/15 01:32:55;;;;;;;9.83;6.80;;;23.20;90.60;;;;;;5010977;28;20407;-67
2022/08/15 01:35:21;;;;;;;7.43;6.73;;;23.20;91.10;;;;;;5010957;28;20462;-67
2022/08/15 01:37:50;;;;;;;13.67;5.90;;;23.10;91.60;;;;;;5010534;28;20413;-67
2022/08/15 01:40:36;;;;;;;6.30;5.70;;;23.00;92.10;;;;;;5012522;28;20184;-67
2022/08/15 01:43:04;;;;;;;8.00;6.17;;;23.00;92.60;;;;;;5031092;28;20402;-67
2022/08/15 01:45:32;;;;;;;6.30;5.70;;;23.00;93.40;;;;;;5029042;28;20438;-67
2022/08/15 01:48:41;;;;;;;7.37;6.60;;;23.00;94.20;;;;;;5030682;28;20410;-67
2022/08/15 01:51:10;;;;;;;8.30;6.40;;;23.10;94.10;;;;;;4930332;29;20422;-67
2022/08/15 01:53:54;;;;;;;6.20;5.70;;;23.00;95.00;;;;;;4930753;29;20466;-67
2022/08/15 01:56:41;;;;;;;7.70;7.00;;;23.10;95.20;;;;;;4930121;29;20489;-67
2022/08/15 01:59:18;;;;;;;17.00;7.30;;;23.10;95.60;;;;;;4930100;29;20410;-67
2022/08/15 02:01:51;;;;;;;21.73;7.70;;;23.10;96.00;;;;;;4930330;29;20501;-67
2022/08/15 02:04:21;;;;;;;9.60;6.60;;;23.10;96.90;;;;;;4930812;29;20403;-67
2022/08/15 02:06:47;;;;;;;7.77;6.70;;;23.10;96.70;;;;;;4948534;29;20580;-67
2022/08/15 02:09:17;;;;;;;8.80;6.07;;;23.10;96.90;;;;;;4948570;29;20426;-67
2022/08/15 02:11:43;;;;;;;7.03;5.90;;;23.20;97.30;;;;;;4931717;29;20909;-66
2022/08/15 02:14:11;;;;;;;7.17;6.43;;;23.20;97.90;;;;;;4929981;29;20441;-68
2022/08/15 02:16:38;;;;;;;6.70;5.93;;;23.20;99.90;;;;;;4930052;29;20405;-70
2022/08/15 02:19:10;;;;;;;6.70;6.10;;;23.10;98.40;;;;;;4929846;29;20437;-67
2022/08/15 02:21:38;;;;;;;17.20;8.23;;;23.10;98.60;;;;;;4961449;28;20418;-67
2022/08/15 02:24:13;;;;;;;7.53;6.73;;;23.10;99.20;;;;;;5009703;28;20427;-68
2022/08/15 02:26:39;;;;;;;15.23;6.70;;;23.10;99.70;;;;;;5010006;28;20426;-67
2022/08/15 02:29:06;;;;;;;8.13;6.53;;;23.10;99.90;;;;;;4991609;28;20465;-67
2022/08/15 02:31:32;;;;;;;7.03;6.27;;;23.00;99.90;;;;;;5009991;28;20219;-66
2022/08/15 02:34:01;;;;;;;7.10;6.50;;;23.10;99.90;;;;;;5009864;28;20518;-68
2022/08/15 02:36:29;;;;;;;7.03;6.30;;;23.00;99.90;;;;;;5010022;28;20489;-67
2022/08/15 02:39:01;;;;;;;8.03;6.30;;;23.00;99.90;;;;;;5009690;28;20771;-68
2022/08/15 02:41:31;;;;;;;7.17;6.53;;;23.00;99.90;;;;;;5021084;28;20422;-67
2022/08/15 02:43:59;;;;;;;11.73;6.53;;;23.00;99.90;;;;;;5029732;28;20886;-67
2022/08/15 02:46:27;;;;;;;12.67;8.40;;;23.00;99.90;;;;;;5029376;28;20430;-68
2022/08/15 02:48:53;;;;;;;13.67;6.80;;;22.90;99.90;;;;;;5029410;28;20434;-68
2022/08/15 02:51:21;;;;;;;15.40;7.73;;;22.90;99.90;;;;;;5029562;28;20832;-67
2022/08/15 02:53:50;;;;;;;8.43;6.90;;;23.00;99.90;;;;;;5029297;28;21176;-68
2022/08/15 02:56:18;;;;;;;9.33;6.33;;;23.00;99.90;;;;;;5028634;28;20504;-68
2022/08/15 02:58:45;;;;;;;7.93;6.20;;;23.00;99.90;;;;;;5029040;28;20493;-67
2022/08/15 03:01:11;;;;;;;6.63;5.93;;;23.00;99.90;;;;;;5029300;28;20544;-67
2022/08/15 03:03:39;;;;;;;8.97;6.07;;;23.00;99.90;;;;;;5029525;28;20399;-67
2022/08/15 03:06:08;;;;;;;8.40;6.60;;;23.00;99.90;;;;;;5041969;28;20437;-67
2022/08/15 03:08:39;;;;;;;11.70;7.37;;;23.00;99.90;;;;;;5031067;28;20420;-67
2022/08/15 03:11:07;;;;;;;13.33;6.10;;;22.80;99.90;;;;;;5035514;28;20417;-67
2022/08/15 03:13:34;;;;;;;13.73;6.10;;;22.70;99.90;;;;;;5029083;28;20413;-67
2022/08/15 03:16:01;;;;;;;7.63;6.60;;;22.70;99.90;;;;;;5011018;28;21001;-67
2022/08/15 03:18:30;;;;;;;7.30;6.47;;;22.60;99.90;;;;;;5029213;28;21049;-67
2022/08/15 03:20:57;;;;;;;6.77;6.17;;;22.70;99.90;;;;;;5029150;28;20935;-67
2022/08/15 03:23:27;;;;;;;7.17;6.20;;;22.70;99.90;;;;;;5029285;28;20485;-67
2022/08/15 03:25:59;;;;;;;10.30;6.60;;;22.80;99.90;;;;;;5028607;28;20414;-67
2022/08/15 03:28:37;;;;;;;9.73;6.60;;;22.80;99.90;;;;;;5010887;28;20446;-68
2022/08/15 03:31:06;;;;;;;6.27;5.67;;;22.70;99.90;;;;;;5029429;28;20445;-68
2022/08/15 03:33:33;;;;;;;9.37;6.87;;;22.70;99.90;;;;;;5029167;28;20406;-68
2022/08/15 03:36:00;;;;;;;7.03;5.67;;;22.60;99.90;;;;;;5029037;28;20482;-68
2022/08/15 03:38:26;;;;;;;11.43;5.80;;;22.70;99.90;;;;;;5028789;28;20576;-67
2022/08/15 03:40:56;;;;;;;11.20;6.10;;;22.60;99.90;;;;;;5028532;28;20414;-67
2022/08/15 03:43:28;;;;;;;10.40;5.27;;;22.50;99.90;;;;;;5029457;28;20755;-67
2022/08/15 03:46:07;;;;;;;11.73;5.80;;;22.50;99.90;;;;;;5028586;28;20438;-68
2022/08/15 03:48:38;;;;;;;11.17;5.23;;;22.50;99.90;;;;;;5027141;28;20409;-67
2022/08/15 03:51:06;;;;;;;8.97;4.87;;;22.40;99.90;;;;;;5029096;28;20410;-67
2022/08/15 03:53:38;;;;;;;7.93;4.70;;;22.40;99.90;;;;;;5032087;28;20438;-67
2022/08/15 03:56:06;;;;;;;9.00;4.00;;;22.40;99.90;;;;;;5031403;28;20467;-67
2022/08/15 03:58:33;;;;;;;11.60;5.10;;;22.40;99.90;;;;;;5012473;28;20908;-67
2022/08/15 04:00:59;;;;;;;18.00;5.83;;;22.40;99.90;;;;;;5012516;28;20403;-67
2022/08/15 04:03:28;;;;;;;10.73;5.03;;;22.40;99.90;;;;;;5012955;28;20763;-67
2022/08/15 04:05:57;;;;;;;24.20;5.90;;;22.40;99.90;;;;;;5035833;28;20937;-67
2022/08/15 04:08:25;;;;;;;13.57;4.60;;;22.40;99.90;;;;;;5051780;28;20413;-68
2022/08/15 04:10:53;;;;;;;17.90;5.80;;;22.30;99.90;;;;;;5040553;28;20411;-67
2022/08/15 04:13:24;;;;;;;22.37;5.17;;;22.30;99.90;;;;;;5032700;28;20409;-68
2022/08/15 04:15:54;;;;;;;11.63;4.47;;;22.30;99.90;;;;;;5032349;28;20465;-67
2022/08/15 04:18:20;;;;;;;7.40;4.30;;;22.30;99.90;;;;;;5032031;28;20913;-67
2022/08/15 04:20:47;;;;;;;16.13;5.60;;;22.30;99.90;;;;;;5023573;28;20779;-67
2022/08/15 04:23:13;;;;;;;32.37;8.77;;;22.30;99.90;;;;;;5030289;28;20421;-68
2022/08/15 04:25:41;;;;;;;26.80;6.47;;;22.30;99.90;;;;;;5028619;28;20470;-67
2022/08/15 04:28:08;;;;;;;13.37;4.63;;;22.30;99.90;;;;;;5012123;28;20410;-68
2022/08/15 04:30:38;;;;;;;10.03;4.90;;;22.30;99.90;;;;;;5030419;28;20414;-67
2022/08/15 04:33:09;;;;;;;23.97;6.17;;;22.30;99.90;;;;;;5031212;28;21241;-67
2022/08/15 04:35:36;;;;;;;13.67;4.90;;;22.30;99.90;;;;;;5012761;28;20459;-68
2022/08/15 04:38:03;;;;;;;7.07;4.27;;;22.20;99.90;;;;;;5017021;28;20469;-68
2022/08/15 04:40:30;;;;;;;21.90;5.53;;;22.20;99.90;;;;;;5030877;28;20413;-67
2022/08/15 04:42:58;;;;;;;22.27;6.43;;;22.10;99.90;;;;;;5031192;28;20486;-68
2022/08/15 04:45:25;;;;;;;11.70;5.03;;;22.10;99.90;;;;;;5029386;28;20438;-67
2022/08/15 04:47:51;;;;;;;20.97;6.00;;;22.10;99.90;;;;;;5029363;28;20415;-67
2022/08/15 04:50:18;;;;;;;24.53;5.67;;;22.10;99.90;;;;;;5029062;28;20468;-67
2022/08/15 04:52:51;;;;;;;16.17;4.67;;;22.10;99.90;;;;;;5029522;28;20449;-66
2022/08/15 04:55:22;;;;;;;5.43;4.60;;;22.10;99.90;;;;;;5010771;28;20486;-66
2022/08/15 04:57:48;;;;;;;10.57;5.20;;;22.10;99.90;;;;;;5009516;28;20432;-67
2022/08/15 05:00:17;;;;;;;9.47;3.80;;;22.10;99.90;;;;;;5009397;28;20403;-67
2022/08/15 05:02:57;;;;;;;6.40;4.10;;;22.10;99.90;;;;;;5009000;28;20860;-66
2022/08/15 05:05:23;;;;;;;9.63;4.30;;;22.00;99.90;;;;;;5015537;28;20458;-68
2022/08/15 05:07:49;;;;;;;7.23;3.83;;;21.90;99.90;;;;;;5010282;28;20408;-65
2022/08/15 05:10:16;;;;;;;8.40;5.53;;;21.80;99.90;;;;;;5027627;28;20423;-66
2022/08/15 05:12:45;;;;;;;8.50;4.73;;;21.90;99.90;;;;;;5027886;28;20546;-66
2022/08/15 05:15:13;;;;;;;22.27;6.40;;;21.80;99.90;;;;;;5019066;28;20474;-66
2022/08/15 05:17:39;;;;;;;12.23;5.50;;;21.80;99.90;;;;;;5018405;28;20476;-65
2022/08/15 05:20:06;;;;;;;5.77;4.37;;;21.80;99.90;;;;;;5027439;28;20422;-66
2022/08/15 05:22:32;;;;;;;6.70;4.40;;;21.90;99.90;;;;;;5028983;28;20762;-66
2022/08/15 05:24:58;;;;;;;4.93;4.20;;;21.90;99.90;;;;;;5028032;28;20501;-66
2022/08/15 05:27:24;;;;;;;19.30;7.20;;;22.00;99.90;;;;;;5028457;28;21029;-63
2022/08/15 05:29:51;;;;;;;21.87;5.40;;;21.90;99.90;;;;;;5028453;28;20632;-66
2022/08/15 05:32:18;;;;;;;9.93;5.00;;;21.90;99.90;;;;;;5028861;28;20191;-66
2022/08/15 05:34:47;;;;;;;14.33;5.23;;;21.90;99.90;;;;;;5022905;28;20463;-66
2022/08/15 05:37:14;;;;;;;15.83;5.53;;;21.90;99.90;;;;;;5023275;28;20418;-66
2022/08/15 05:39:42;;;;;;;9.97;5.00;;;21.80;99.90;;;;;;5023942;28;20418;-66
2022/08/15 05:42:36;;;;;;;13.13;5.10;;;21.90;99.90;;;;;;5027870;28;20903;-66
2022/08/15 05:45:06;;;;;;;10.50;5.13;;;22.00;99.90;;;;;;5027992;28;20441;-66
2022/08/15 05:47:37;;;;;;;5.77;5.00;;;22.00;99.90;;;;;;5028133;28;20552;-66
2022/08/15 05:50:11;;;;;;;5.90;4.70;;;21.90;99.90;;;;;;5027842;28;20415;-66
2022/08/15 05:53:09;;;;;;;12.93;5.33;;;21.80;99.90;;;;;;5027964;28;20425;-66
2022/08/15 05:55:39;;;;;;;11.67;5.00;;;21.90;99.90;;;;;;5007467;28;20466;-66
2022/08/15 05:58:17;;;;;;;17.47;5.23;;;22.00;99.90;;;;;;5008147;28;21000;-64
2022/08/15 06:00:50;;;;;;;16.23;5.97;;;21.80;99.90;;;;;;5014137;28;20870;-65
2022/08/15 06:03:23;;;;;;;12.47;6.00;;;22.00;99.90;;;;;;5026278;28;20441;-64
2022/08/15 06:05:56;;;;;;;15.77;6.47;;;21.80;99.90;;;;;;5026877;28;20766;-64
2022/08/15 06:08:31;;;;;;;13.00;5.60;;;21.70;99.90;;;;;;5027936;28;20505;-64
2022/08/15 06:11:02;;;;;;;9.03;5.53;;;21.80;99.90;;;;;;5027753;28;20790;-66
2022/08/15 06:13:37;;;;;;;9.93;5.13;;;21.90;99.90;;;;;;5027871;28;20409;-66
2022/08/15 06:16:16;;;;;;;5.43;4.93;;;21.60;1.00;;;;;;5025759;28;20966;-66
2022/08/15 06:18:44;;;;;;;7.93;5.00;;;21.40;1.00;;;;;;5020492;28;20438;-64
2022/08/15 06:21:30;;;;;;;5.93;5.40;;;21.40;1.00;;;;;;5026358;28;20453;-64
2022/08/15 06:24:14;;;;;;;10.20;5.23;;;21.50;1.00;;;;;;5029347;28;20413;-64
2022/08/15 06:26:53;;;;;;;12.30;5.20;;;21.40;1.00;;;;;;5029783;28;20989;-64
2022/08/15 06:29:37;;;;;;;13.73;6.67;;;21.30;1.00;;;;;;5027557;28;20434;-64
2022/08/15 06:32:21;;;;;;;19.73;5.60;;;21.40;1.00;;;;;;5029607;28;20403;-64
2022/08/15 06:35:04;;;;;;;6.40;5.20;;;21.40;1.00;;;;;;5027485;28;20469;-65
2022/08/15 06:37:38;;;;;;;14.30;5.50;;;21.40;1.00;;;;;;5021100;28;20480;-65
2022/08/15 06:40:23;;;;;;;17.00;6.10;;;21.30;1.00;;;;;;5027316;28;20504;-64
2022/08/15 06:42:49;;;;;;;11.33;5.87;;;21.30;1.00;;;;;;5026018;28;20422;-65
2022/08/15 06:45:21;;;;;;;12.50;6.47;;;21.30;1.00;;;;;;5025392;28;20454;-64
2022/08/15 06:47:50;;;;;;;16.00;5.87;;;21.80;1.00;;;;;;5027725;28;20441;-65
2022/08/15 06:50:20;;;;;;;23.90;6.47;;;22.20;1.00;;;;;;5025390;28;20438;-64
2022/08/15 06:53:14;;;;;;;23.00;6.53;;;22.70;1.00;;;;;;5028974;28;20707;-65
2022/08/15 06:56:06;;;;;;;23.20;6.00;;;23.10;99.90;;;;;;5027379;28;20466;-65
2022/08/15 06:58:51;;;;;;;13.37;6.17;;;23.50;99.90;;;;;;5008918;28;20419;-64
2022/08/15 07:02:00;;;;;;;17.67;6.20;;;23.70;99.90;;;;;;5023131;28;20434;-64
2022/08/15 07:05:04;;;;;;;18.60;6.50;;;24.00;99.90;;;;;;5029127;28;20504;-64
2022/08/15 07:07:35;;;;;;;8.80;4.80;;;24.30;99.90;;;;;;4982103;28;20517;-65
2022/08/15 07:10:27;;;;;;;12.07;5.30;;;24.30;99.90;;;;;;5026301;28;20807;-65
2022/08/15 07:13:24;;;;;;;13.30;5.20;;;24.50;99.90;;;;;;4995014;28;20429;-64
2022/08/15 07:16:15;;;;;;;10.30;5.47;;;24.80;99.90;;;;;;5008795;28;20546;-64
2022/08/15 07:18:49;;;;;;;13.33;7.43;;;25.00;99.90;;;;;;5008453;28;20712;-64
2022/08/15 07:21:18;;;;;;;6.47;4.90;;;24.90;99.90;;;;;;5021454;28;21046;-64
2022/08/15 07:24:05;;;;;;;14.03;5.63;;;24.50;99.90;;;;;;5029027;28;20410;-64
2022/08/15 07:26:51;;;;;;;16.83;5.80;;;24.30;99.90;;;;;;5028706;28;20935;-65
2022/08/15 07:29:25;;;;;;;23.80;6.20;;;24.10;99.90;;;;;;5030198;28;20450;-65
2022/08/15 07:32:07;;;;;;;8.30;5.10;;;24.30;99.90;;;;;;5031492;28;20837;-65
2022/08/15 07:34:35;;;;;;;26.63;6.50;;;24.60;99.90;;;;;;5011217;28;20482;-65
2022/08/15 07:37:05;;;;;;;8.30;5.30;;;25.00;99.90;;;;;;5013011;28;20522;-65
2022/08/15 07:39:39;;;;;;;6.70;4.57;;;25.30;99.90;;;;;;5012014;28;20457;-66
2022/08/15 07:42:18;;;;;;;8.53;5.10;;;25.60;99.90;;;;;;5030643;28;20438;-65
2022/08/15 07:44:57;;;;;;;12.53;4.73;;;25.80;99.90;;;;;;5026321;28;20401;-65
2022/08/15 07:47:31;;;;;;;5.50;3.67;;;26.10;99.90;;;;;;5031791;28;20496;-67
2022/08/15 07:50:23;;;;;;;5.87;3.93;;;25.80;99.90;;;;;;5029609;28;20437;-67
2022/08/15 07:53:16;;;;;;;11.80;4.10;;;26.00;99.90;;;;;;5026314;28;20455;-66
2022/08/15 07:56:04;;;;;;;6.70;4.03;;;25.90;99.90;;;;;;5003904;28;20631;-67
2022/08/15 07:58:32;;;;;;;6.20;3.60;;;25.90;99.90;;;;;;5020259;28;20430;-66
2022/08/15 08:01:13;;;;;;;14.87;4.77;;;26.00;99.90;;;;;;5031856;28;20453;-66
2022/08/15 08:03:45;;;;;;;11.07;5.10;;;26.00;99.90;;;;;;5027665;28;20436;-66
2022/08/15 08:06:20;;;;;;;9.10;3.27;;;25.90;99.90;;;;;;5031532;28;20441;-66
2022/08/15 08:09:21;;;;;;;9.63;3.87;;;26.00;99.90;;;;;;5031344;28;20444;-67
2022/08/15 08:12:30;;;;;;;5.00;4.10;;;26.10;99.90;;;;;;5031120;28;20934;-67
2022/08/15 08:15:08;;;;;;;5.27;3.63;;;26.20;99.90;;;;;;4989823;28;20466;-67
2022/08/15 08:17:42;;;;;;;6.33;4.20;;;26.40;99.90;;;;;;5023495;28;20917;-66
2022/08/15 08:20:13;;;;;;;30.87;6.13;;;26.40;99.90;;;;;;5030687;28;20527;-66
2022/08/15 08:23:11;;;;;;;23.90;4.90;;;26.70;99.90;;;;;;5031860;28;20405;-66
2022/08/15 08:25:49;;;;;;;26.87;5.93;;;27.00;99.90;;;;;;5031376;28;20497;-64
2022/08/15 08:28:29;;;;;;;8.40;4.30;;;27.10;99.90;;;;;;5031265;28;20906;-64
2022/08/15 08:31:15;;;;;;;7.30;3.90;;;27.20;99.90;;;;;;5029941;28;20938;-64
2022/08/15 08:34:12;;;;;;;15.17;4.47;;;27.10;99.90;;;;;;5024265;28;20480;-61
2022/08/15 08:36:58;;;;;;;11.70;4.27;;;27.10;99.90;;;;;;5023799;28;20485;-63
2022/08/15 08:39:51;;;;;;;5.33;3.13;;;27.30;99.90;;;;;;5011946;28;20413;-66
2022/08/15 08:42:22;;;;;;;8.53;4.30;;;27.40;99.90;;;;;;5031240;28;20416;-67
2022/08/15 08:44:59;;;;;;;41.90;7.07;;;27.60;99.90;;;;;;5031281;28;20410;-67
2022/08/15 08:47:56;;;;;;;7.50;4.10;;;27.70;99.90;;;;;;5031547;28;20464;-67
2022/08/15 08:50:29;;;;;;;15.13;4.20;;;27.80;99.90;;;;;;5028595;28;21040;-67
2022/08/15 08:53:19;;;;;;;5.27;3.03;;;27.70;99.90;;;;;;5031043;28;20402;-65
2022/08/15 08:55:47;;;;;;;7.70;4.33;;;27.80;99.90;;;;;;5011360;28;20966;-68
2022/08/15 08:58:40;;;;;;;17.73;3.90;;;27.80;99.90;;;;;;5011069;28;20896;-65
2022/08/15 09:01:10;;;;;;;21.67;5.17;;;27.90;98.10;;;;;;5010286;28;20444;-68
2022/08/15 09:03:48;;;;;;;19.27;4.00;;;27.90;97.00;;;;;;5031354;28;20437;-67
2022/08/15 09:06:22;;;;;;;15.23;3.60;;;27.90;95.40;;;;;;5030524;28;20449;-66
2022/08/15 09:09:00;;;;;;;9.60;3.67;;;27.90;94.00;;;;;;5030733;28;20508;-66
2022/08/15 09:11:49;;;;;;;11.80;3.70;;;27.50;91.80;;;;;;5030305;28;20649;-66
2022/08/15 09:14:34;;;;;;;7.20;3.43;;;27.40;90.90;;;;;;5031204;28;20479;-68
2022/08/15 09:17:13;;;;;;;7.63;3.47;;;27.20;90.40;;;;;;5025465;28;20474;-67
2022/08/15 09:19:51;;;;;;;7.77;3.50;;;27.40;89.90;;;;;;5027357;28;20421;-67
2022/08/15 09:22:18;;;;;;;26.73;5.63;;;27.30;87.70;;;;;;5030287;28;20444;-68
2022/08/15 09:24:44;;;;;;;27.30;5.10;;;27.00;85.20;;;;;;5030234;28;20771;-67
2022/08/15 09:27:25;;;;;;;9.03;4.00;;;26.70;85.60;;;;;;5030530;28;20430;-67
2022/08/15 09:30:18;;;;;;;12.63;4.30;;;26.70;83.40;;;;;;5029962;28;20186;-66
2022/08/15 09:32:47;;;;;;;14.87;3.70;;;27.00;83.60;;;;;;5021712;28;20906;-66
2022/08/15 09:35:47;;;;;;;14.13;4.37;;;27.30;82.50;;;;;;5030475;28;20461;-66
2022/08/15 09:38:16;;;;;;;17.03;4.20;;;27.40;81.10;;;;;;5029429;28;20402;-67
2022/08/15 09:41:09;;;;;;;10.00;3.60;;;27.70;77.80;;;;;;5029038;28;20545;-67
2022/08/15 09:44:00;;;;;;;29.97;7.10;;;27.60;75.90;;;;;;5022247;28;20508;-67
2022/08/15 09:46:50;;;;;;;29.93;5.90;;;27.90;75.70;;;;;;5030459;28;20430;-67
2022/08/15 09:49:28;;;;;;;40.90;5.40;;;27.90;73.00;;;;;;5029490;28;20472;-67
2022/08/15 09:52:15;;;;;;;6.30;3.27;;;28.10;70.80;;;;;;5029188;28;20437;-67
2022/08/15 09:54:48;;;;;;;44.83;7.07;;;28.10;68.90;;;;;;5023150;28;20546;-67
2022/08/15 09:57:31;;;;;;;9.50;4.50;;;28.30;67.30;;;;;;5014683;28;20425;-67
2022/08/15 10:00:00;;;;;;;5.63;3.30;;;28.30;64.80;;;;;;5028279;28;20668;-67
2022/08/15 10:02:32;;;;;;;5.00;3.07;;;28.30;61.70;;;;;;5028238;28;20539;-66
2022/08/15 10:04:58;;;;;;;15.23;4.00;;;28.50;60.90;;;;;;5029424;28;20420;-67
2022/08/15 10:07:58;;;;;;;7.90;4.13;;;28.60;59.10;;;;;;5023370;28;20479;-67
2022/08/15 10:10:34;;;;;;;16.90;4.70;;;28.70;57.30;;;;;;5031189;28;20421;-66
2022/08/15 10:13:28;;;;;;;20.53;4.33;;;28.50;55.10;;;;;;5028772;28;20421;-66
2022/08/15 10:15:55;;;;;;;9.00;4.40;;;28.60;54.30;;;;;;5028621;28;20484;-68
2022/08/15 10:18:26;;;;;;;10.90;4.00;;;28.60;52.90;;;;;;5029047;28;20409;-67
2022/08/15 10:21:19;;;;;;;17.27;4.00;;;28.40;51.00;;;;;;5029343;28;20467;-67
2022/08/15 10:23:54;;;;;;;33.20;5.47;;;27.90;50.30;;;;;;5029611;28;20398;-66
2022/08/15 10:26:27;;;;;;;4.57;3.30;;;28.10;50.20;;;;;;5028344;28;20449;-66
2022/08/15 10:29:08;;;;;;;21.00;4.27;;;28.30;50.10;;;;;;5028247;28;20782;-66
2022/08/15 10:31:50;;;;;;;5.67;3.67;;;28.50;48.60;;;;;;5021434;28;20445;-66
2022/08/15 10:34:29;;;;;;;4.17;3.10;;;28.70;47.90;;;;;;5028869;28;20524;-66
2022/08/15 10:37:17;;;;;;;23.70;5.27;;;28.60;46.80;;;;;;5028100;28;20503;-65
2022/08/15 10:39:57;;;;;;;11.03;4.20;;;28.70;45.70;;;;;;5022164;28;20402;-66
2022/08/15 10:42:44;;;;;;;6.03;3.67;;;28.80;44.50;;;;;;5028807;28;20455;-66
2022/08/15 10:45:24;;;;;;;9.50;3.70;;;28.50;42.50;;;;;;5028881;28;20449;-67
2022/08/15 10:48:08;;;;;;;13.30;4.00;;;28.30;41.60;;;;;;5026283;28;20722;-65
2022/08/15 10:50:53;;;;;;;13.43;4.93;;;28.40;41.80;;;;;;5022701;28;20417;-67
2022/08/15 10:53:39;;;;;;;15.13;5.07;;;28.30;41.00;;;;;;5028238;28;20417;-67
2022/08/15 10:56:28;;;;;;;15.73;4.50;;;28.50;41.50;;;;;;5028560;28;20465;-66
2022/08/15 10:59:05;;;;;;;12.07;3.97;;;28.60;41.00;;;;;;5028359;28;20444;-67
2022/08/15 11:01:35;;;;;;;6.70;3.93;;;28.50;39.60;;;;;;5024827;28;20405;-67
2022/08/15 11:04:05;;;;;;;8.47;4.30;;;28.50;39.30;;;;;;5035177;28;20461;-66
2022/08/15 11:06:37;;;;;;;13.10;4.40;;;28.30;37.70;;;;;;5032529;28;20438;-67
2022/08/15 11:09:14;;;;;;;8.97;4.30;;;28.30;37.60;;;;;;5033400;28;20456;-67
2022/08/15 11:11:52;;;;;;;5.07;3.90;;;28.30;37.90;;;;;;5016022;28;20449;-67
2022/08/15 11:14:38;;;;;;;48.87;8.13;;;28.50;36.80;;;;;;5035648;28;20408;-67
2022/08/15 11:17:13;;;;;;;18.50;5.10;;;28.50;37.50;;;;;;5035428;28;20464;-66
2022/08/15 11:19:44;;;;;;;6.30;3.70;;;28.60;35.40;;;;;;5035061;28;20502;-67
2022/08/15 11:22:17;;;;;;;9.47;3.70;;;28.70;34.40;;;;;;5034417;28;20440;-67
2022/08/15 11:24:54;;;;;;;10.13;3.97;;;28.50;34.10;;;;;;5034038;28;20429;-67
2022/08/15 11:27:24;;;;;;;13.20;4.50;;;28.70;33.90;;;;;;5034736;28;20420;-67
2022/08/15 11:29:53;;;;;;;17.23;4.90;;;28.70;33.00;;;;;;5035176;28;20413;-67
2022/08/15 11:32:29;;;;;;;13.17;4.73;;;28.20;31.30;;;;;;5035616;28;20424;-67
2022/08/15 11:34:56;;;;;;;16.47;4.50;;;28.10;31.10;;;;;;5035346;28;20473;-67
2022/08/15 11:37:26;;;;;;;13.83;4.40;;;28.20;30.90;;;;;;5032834;28;20409;-67
2022/08/15 11:40:02;;;;;;;8.90;4.30;;;28.30;30.60;;;;;;5034252;28;21006;-67
2022/08/15 11:42:32;;;;;;;9.53;4.50;;;28.40;30.90;;;;;;5035254;28;20772;-67
2022/08/15 11:45:03;;;;;;;5.00;3.33;;;28.20;29.80;;;;;;5034312;28;20429;-67
2022/08/15 11:47:32;;;;;;;14.50;4.47;;;28.20;29.80;;;;;;5030553;28;20460;-67
2022/08/15 11:50:03;;;;;;;51.77;9.10;;;28.40;29.30;;;;;;5033818;28;20870;-67
2022/08/15 11:52:32;;;;;;;6.40;4.07;;;28.30;30.00;;;;;;5016180;28;20441;-67
2022/08/15 11:55:08;;;;;;;5.10;3.70;;;28.40;29.90;;;;;;5034385;28;20834;-67
2022/08/15 11:57:41;;;;;;;4.37;3.13;;;28.50;29.60;;;;;;5033395;28;20403;-67
2022/08/15 12:00:22;;;;;;;14.47;4.57;;;28.60;29.00;;;;;;5031704;28;20429;-66
2022/08/15 12:02:51;;;;;;;16.30;4.63;;;28.60;28.80;;;;;;5031413;28;20838;-67
2022/08/15 12:05:30;;;;;;;13.70;4.90;;;28.40;28.10;;;;;;5032615;28;20476;-66
2022/08/15 12:07:59;;;;;;;4.40;4.00;;;28.40;38.90;;;;;;5031592;28;20443;-66
2022/08/15 12:10:35;;;;;;;4.67;2.80;;;28.50;27.60;;;;;;5023594;28;20926;-66
2022/08/15 12:13:02;;;;;;;18.70;4.50;;;28.50;28.00;;;;;;5011247;28;20612;-66
2022/08/15 12:15:30;;;;;;;13.93;4.80;;;28.50;27.30;;;;;;5030699;28;20562;-68
2022/08/15 12:18:24;;;;;;;5.50;3.30;;;28.50;25.90;;;;;;5028585;28;20434;-66
2022/08/15 12:20:56;;;;;;;5.93;3.30;;;28.30;25.50;;;;;;5020276;28;20471;-66
2022/08/15 12:23:25;;;;;;;11.53;5.07;;;28.50;25.00;;;;;;5012088;28;20521;-66
2022/08/15 12:25:55;;;;;;;3.63;3.23;;;28.60;24.60;;;;;;5028951;28;20449;-66
2022/08/15 12:28:21;;;;;;;9.77;3.90;;;28.80;24.80;;;;;;5028100;28;20724;-67
2022/08/15 12:30:47;;;;;;;3.80;3.50;;;28.80;23.90;;;;;;5028440;28;21114;-66
2022/08/15 12:33:15;;;;;;;18.43;4.30;;;28.80;23.30;;;;;;5027082;28;20490;-67
2022/08/15 12:35:42;;;;;;;21.80;6.07;;;28.80;23.30;;;;;;5027717;28;20835;-67
2022/08/15 12:38:08;;;;;;;6.47;3.43;;;29.00;22.60;;;;;;5027411;28;20425;-67
2022/08/15 12:40:34;;;;;;;5.93;3.00;;;28.90;21.30;;;;;;5029758;28;20808;-66
2022/08/15 12:43:00;;;;;;;15.73;4.73;;;29.00;21.00;;;;;;5029851;28;20984;-66
2022/08/15 12:45:26;;;;;;;3.50;3.20;;;29.00;20.50;;;;;;5027048;28;20465;-67
2022/08/15 12:47:52;;;;;;;6.03;3.23;;;28.90;19.20;;;;;;5028764;28;20433;-67
2022/08/15 12:50:18;;;;;;;4.97;3.60;;;28.80;18.40;;;;;;5028704;28;20650;-67
2022/08/15 12:52:44;;;;;;;10.60;4.70;;;28.80;20.10;;;;;;5028677;28;20181;-67
2022/08/15 12:55:10;;;;;;;6.73;4.13;;;29.10;18.10;;;;;;5030030;28;20246;-67
2022/08/15 12:57:36;;;;;;;15.10;4.70;;;29.20;17.60;;;;;;5030867;28;20418;-67
2022/08/15 13:00:04;;;;;;;8.47;4.10;;;29.10;16.70;;;;;;5030298;28;20183;-67
2022/08/15 13:02:30;;;;;;;6.50;4.30;;;29.00;16.20;;;;;;5030673;28;21015;-67
2022/08/15 13:04:56;;;;;;;5.00;3.97;;;29.00;15.80;;;;;;5030663;28;20573;-67
2022/08/15 13:07:24;;;;;;;5.93;3.90;;;28.90;15.40;;;;;;5050929;28;20192;-68
2022/08/15 13:09:50;;;;;;;6.23;4.90;;;28.90;15.00;;;;;;5001671;28;20433;-67
2022/08/15 13:12:16;;;;;;;8.30;4.27;;;28.90;14.40;;;;;;5030511;28;20944;-67
2022/08/15 13:14:42;;;;;;;7.00;3.80;;;29.10;14.30;;;;;;5030368;28;20199;-67
2022/08/15 13:17:09;;;;;;;37.23;6.87;;;28.90;13.80;;;;;;5030162;28;20905;-68
2022/08/15 13:25:09;;;;;;;12.03;3.90;;;28.80;13.10;;;;;;5029762;28;20928;-66
2022/08/15 13:27:35;;;;;;;13.50;4.53;;;28.80;13.00;;;;;;5029916;28;20440;-66